Time;durP1;ratioP1;P1;durP2;ratioP2;P2;SDS_P1;SDS_P2;PMS_P1;PMS_P2;Temp;Humidity;BMP_temperature;BMP_pressure;BME280_temperature;BME280_humidity;BME280_pressure;Samples;Min_cycle;Max_cycle;Signal;HPM_P1;HPM_P2
2022/05/16 00:00:59;;;;;;;0.00;0.00;;;21.40;59.80;;;;;;4209287;28;20055;-66
2022/05/16 00:03:21;;;;;;;0.00;0.00;;;21.40;59.60;;;;;;4208760;28;20040;-67
2022/05/16 00:05:44;;;;;;;0.00;0.00;;;21.40;59.90;;;;;;4208404;28;20059;-67
2022/05/16 00:08:07;;;;;;;0.10;0.10;;;21.30;59.90;;;;;;4209160;28;20054;-67
2022/05/16 00:10:30;;;;;;;0.00;0.00;;;21.30;59.90;;;;;;4209080;28;20407;-67
2022/05/16 00:12:52;;;;;;;0.03;0.03;;;21.30;60.10;;;;;;4208682;28;20137;-67
2022/05/16 00:15:16;;;;;;;0.00;0.00;;;21.30;60.10;;;;;;4208680;28;20060;-67
2022/05/16 00:17:39;;;;;;;0.00;0.00;;;21.30;60.10;;;;;;4208995;28;20087;-68
2022/05/16 00:20:02;;;;;;;1.55;0.93;;;21.30;60.10;;;;;;4208247;28;20039;-67
2022/05/16 00:22:27;;;;;;;0.00;0.00;;;21.30;60.10;;;;;;4208452;28;20585;-67
2022/05/16 00:24:50;;;;;;;0.65;0.65;;;21.30;60.10;;;;;;4206977;28;20532;-66
2022/05/16 00:27:13;;;;;;;0.00;0.00;;;21.30;60.30;;;;;;4208673;28;20515;-66
2022/05/16 00:29:35;;;;;;;0.40;0.40;;;21.30;60.40;;;;;;4208794;28;20048;-67
2022/05/16 00:31:57;;;;;;;0.10;0.10;;;21.30;60.20;;;;;;4208767;28;20399;-67
2022/05/16 00:34:19;;;;;;;0.00;0.00;;;21.30;60.40;;;;;;4208287;28;20142;-66
2022/05/16 00:36:42;;;;;;;1.20;0.57;;;21.20;60.30;;;;;;4208834;28;20055;-66
2022/05/16 00:39:06;;;;;;;0.65;0.65;;;21.30;60.30;;;;;;4208193;28;20426;-67
2022/05/16 00:41:29;;;;;;;0.00;0.00;;;21.20;60.30;;;;;;4208600;28;20063;-67
2022/05/16 00:43:55;;;;;;;0.00;0.00;;;21.20;60.40;;;;;;4208818;28;20047;-66
2022/05/16 00:46:18;;;;;;;0.00;0.00;;;21.20;60.00;;;;;;4208435;28;20521;-67
2022/05/16 00:48:40;;;;;;;0.00;0.00;;;21.20;60.30;;;;;;4208776;28;20052;-66
2022/05/16 00:51:03;;;;;;;0.20;0.20;;;21.20;60.30;;;;;;4208456;28;20455;-66
2022/05/16 00:53:25;;;;;;;0.00;0.00;;;21.20;60.10;;;;;;4208203;28;20086;-66
2022/05/16 00:55:49;;;;;;;0.00;0.00;;;21.20;59.90;;;;;;4208421;28;20094;-67
2022/05/16 00:58:15;;;;;;;0.00;0.00;;;21.20;60.00;;;;;;4208303;28;25582;-66
2022/05/16 01:00:39;;;;;;;0.47;0.47;;;21.20;59.60;;;;;;4208207;28;20127;-67
2022/05/16 01:05:44;;;;;;;0.75;0.75;;;21.10;59.30;;;;;;4208126;28;20075;-66
2022/05/16 01:08:10;;;;;;;0.40;0.40;;;21.10;60.00;;;;;;4208202;28;20055;-66
2022/05/16 01:10:33;;;;;;;0.05;0.05;;;21.10;59.80;;;;;;4208725;28;20097;-67
2022/05/16 01:12:58;;;;;;;0.00;0.00;;;21.10;59.70;;;;;;4208234;28;20075;-66
2022/05/16 01:15:29;;;;;;;5.50;2.75;;;21.10;59.80;;;;;;4208546;28;20036;-66
2022/05/16 01:17:51;;;;;;;0.00;0.00;;;21.10;59.80;;;;;;4206720;28;20127;-66
2022/05/16 01:20:13;;;;;;;0.00;0.00;;;21.10;59.50;;;;;;4192603;28;20515;-67
2022/05/16 01:22:39;;;;;;;0.00;0.00;;;21.10;59.50;;;;;;4208042;28;20055;-66
2022/05/16 01:25:06;;;;;;;0.08;0.08;;;21.00;59.80;;;;;;4207749;28;20063;-67
2022/05/16 01:27:28;;;;;;;0.00;0.00;;;21.00;59.70;;;;;;4208534;28;20056;-66
2022/05/16 01:29:51;;;;;;;0.70;0.70;;;21.00;59.80;;;;;;4210844;28;20143;-67
2022/05/16 01:32:13;;;;;;;0.10;0.10;;;21.00;59.60;;;;;;4211396;28;20112;-67
2022/05/16 01:34:35;;;;;;;0.00;0.00;;;21.00;59.70;;;;;;4210580;28;20071;-67
2022/05/16 01:36:58;;;;;;;0.57;0.43;;;21.00;59.50;;;;;;4209311;28;20059;-66
2022/05/16 01:39:21;;;;;;;0.00;0.00;;;21.00;60.00;;;;;;4199851;28;20044;-67
2022/05/16 01:41:43;;;;;;;0.00;0.00;;;21.00;59.60;;;;;;4210804;28;20048;-67
2022/05/16 01:44:06;;;;;;;0.00;0.00;;;21.00;59.50;;;;;;4211047;28;20139;-66
2022/05/16 01:46:29;;;;;;;0.22;0.20;;;20.90;59.60;;;;;;4210923;28;20056;-66
2022/05/16 01:48:52;;;;;;;0.00;0.00;;;20.90;59.70;;;;;;4210733;28;20051;-66
2022/05/16 01:51:15;;;;;;;0.10;0.10;;;20.90;59.80;;;;;;4210877;28;20135;-67
2022/05/16 01:53:38;;;;;;;0.00;0.00;;;20.90;59.90;;;;;;4211119;28;20056;-66
2022/05/16 01:56:02;;;;;;;0.00;0.00;;;20.90;59.80;;;;;;4211249;28;20399;-66
2022/05/16 01:58:24;;;;;;;0.10;0.10;;;20.90;58.90;;;;;;4211168;28;20048;-67
2022/05/16 02:00:46;;;;;;;0.00;0.00;;;20.90;59.70;;;;;;4210989;28;20465;-67
2022/05/16 02:03:10;;;;;;;0.13;0.13;;;20.90;59.30;;;;;;4211007;28;20102;-67
2022/05/16 02:05:32;;;;;;;0.00;0.00;;;20.90;60.20;;;;;;4210641;28;20048;-67
2022/05/16 02:07:55;;;;;;;1.02;0.32;;;20.80;59.60;;;;;;4210652;28;20048;-67
2022/05/16 02:10:19;;;;;;;0.00;0.00;;;20.80;59.60;;;;;;4210018;28;20052;-67
2022/05/16 02:12:43;;;;;;;0.00;0.00;;;20.80;59.60;;;;;;4210549;28;20125;-68
2022/05/16 02:15:09;;;;;;;0.40;0.40;;;20.80;59.30;;;;;;4210373;28;20127;-68
2022/05/16 02:17:31;;;;;;;0.00;0.00;;;20.80;59.10;;;;;;4210344;28;20453;-67
2022/05/16 02:19:53;;;;;;;0.00;0.00;;;20.80;59.30;;;;;;4210274;28;20040;-67
2022/05/16 02:24:54;;;;;;;0.00;0.00;;;20.80;59.70;;;;;;4208842;28;20048;-68
2022/05/16 02:27:17;;;;;;;0.00;0.00;;;20.70;59.20;;;;;;4209997;28;20093;-67
2022/05/16 02:29:41;;;;;;;0.00;0.00;;;20.70;59.30;;;;;;4210593;28;20055;-67
2022/05/16 02:32:04;;;;;;;2.10;1.85;;;20.70;59.20;;;;;;4208836;28;20155;-67
2022/05/16 02:34:26;;;;;;;0.00;0.00;;;20.70;59.30;;;;;;4209320;28;20154;-67
2022/05/16 02:36:48;;;;;;;0.00;0.00;;;20.70;58.80;;;;;;4210192;28;20048;-67
2022/05/16 02:39:11;;;;;;;0.00;0.00;;;20.70;59.30;;;;;;4209571;28;20129;-67
2022/05/16 02:41:33;;;;;;;0.43;0.43;;;20.60;59.30;;;;;;4210223;28;20060;-67
2022/05/16 02:43:56;;;;;;;0.00;0.00;;;20.70;59.10;;;;;;4194502;28;20056;-67
2022/05/16 02:46:19;;;;;;;0.00;0.00;;;20.60;60.00;;;;;;4210083;28;20126;-67
2022/05/16 02:48:41;;;;;;;0.00;0.00;;;20.60;59.20;;;;;;4209548;28;20044;-67
2022/05/16 02:51:03;;;;;;;0.00;0.00;;;20.70;59.00;;;;;;4209871;28;20083;-67
2022/05/16 02:53:26;;;;;;;0.00;0.00;;;20.60;58.90;;;;;;4193203;28;20113;-67
2022/05/16 02:55:48;;;;;;;0.00;0.00;;;20.60;59.00;;;;;;4193150;28;20040;-67
2022/05/16 02:58:10;;;;;;;0.00;0.00;;;20.60;59.10;;;;;;4193182;28;20059;-67
2022/05/16 03:00:33;;;;;;;0.10;0.10;;;20.60;59.00;;;;;;4193201;28;20048;-68
2022/05/16 03:02:56;;;;;;;0.00;0.00;;;20.60;58.90;;;;;;4209791;28;20109;-68
2022/05/16 03:05:19;;;;;;;0.00;0.00;;;20.60;59.00;;;;;;4209608;28;20048;-68
2022/05/16 03:07:43;;;;;;;0.00;0.00;;;20.60;58.90;;;;;;4209672;28;20075;-68
2022/05/16 03:10:06;;;;;;;0.00;0.00;;;20.50;58.70;;;;;;4209786;28;20058;-68
2022/05/16 03:12:29;;;;;;;0.00;0.00;;;20.50;59.10;;;;;;4209538;28;20059;-67
2022/05/16 03:14:51;;;;;;;0.00;0.00;;;20.50;59.10;;;;;;4209544;28;20113;-66
2022/05/16 03:17:13;;;;;;;0.00;0.00;;;20.50;58.40;;;;;;4209924;28;20044;-66
2022/05/16 03:19:37;;;;;;;0.00;0.00;;;20.50;58.90;;;;;;4208133;28;20051;-66
2022/05/16 03:21:59;;;;;;;0.00;0.00;;;20.50;59.30;;;;;;4209340;28;20080;-66
2022/05/16 03:24:21;;;;;;;0.03;0.03;;;20.50;59.30;;;;;;4207878;28;20531;-66
2022/05/16 03:26:43;;;;;;;0.00;0.00;;;20.50;59.50;;;;;;4209517;28;20055;-66
2022/05/16 03:29:06;;;;;;;0.00;0.00;;;20.50;59.40;;;;;;4208262;28;20052;-67
2022/05/16 03:31:29;;;;;;;0.10;0.10;;;20.50;59.50;;;;;;4209559;28;20139;-68
2022/05/16 03:33:51;;;;;;;0.00;0.00;;;20.40;59.00;;;;;;4209335;28;20043;-68
2022/05/16 03:36:19;;;;;;;0.40;0.40;;;20.40;58.40;;;;;;4208570;28;20081;-67
2022/05/16 03:41:20;;;;;;;0.00;0.00;;;20.40;58.30;;;;;;4208857;28;20048;-67
2022/05/16 03:43:43;;;;;;;0.00;0.00;;;20.40;58.10;;;;;;4209304;28;20521;-68
2022/05/16 03:46:05;;;;;;;0.00;0.00;;;20.40;58.40;;;;;;4209218;28;20860;-67
2022/05/16 03:48:27;;;;;;;0.10;0.10;;;20.40;59.70;;;;;;4208517;28;20078;-67
2022/05/16 03:50:49;;;;;;;0.00;0.00;;;20.40;59.20;;;;;;4208207;28;20067;-67
2022/05/16 03:53:13;;;;;;;0.00;0.00;;;20.40;59.20;;;;;;4208962;28;20097;-67
2022/05/16 03:55:35;;;;;;;0.00;0.00;;;20.30;59.30;;;;;;4209032;28;20059;-66
2022/05/16 03:57:58;;;;;;;0.00;0.00;;;20.30;59.20;;;;;;4209003;28;20402;-67
2022/05/16 04:00:21;;;;;;;0.00;0.00;;;20.30;59.40;;;;;;4209080;28;20112;-67
2022/05/16 04:02:44;;;;;;;0.00;0.00;;;20.30;59.30;;;;;;4208695;28;20097;-67
2022/05/16 04:05:08;;;;;;;0.20;0.20;;;20.30;59.40;;;;;;4208945;28;20063;-68
2022/05/16 04:07:30;;;;;;;0.00;0.00;;;20.30;59.10;;;;;;4208076;28;20517;-67
2022/05/16 04:09:53;;;;;;;0.00;0.00;;;20.40;59.00;;;;;;4208573;28;20608;-67
2022/05/16 04:12:15;;;;;;;0.00;0.00;;;20.30;59.10;;;;;;4208939;28;20055;-67
2022/05/16 04:14:37;;;;;;;0.00;0.00;;;20.30;59.10;;;;;;4208687;28;20052;-67
2022/05/16 04:16:59;;;;;;;0.00;0.00;;;20.30;59.50;;;;;;4208617;28;20406;-66
2022/05/16 04:19:21;;;;;;;0.00;0.00;;;20.30;59.30;;;;;;4208951;28;20044;-66
2022/05/16 04:21:43;;;;;;;0.00;0.00;;;20.30;59.50;;;;;;4208753;28;20047;-67
2022/05/16 04:24:06;;;;;;;0.00;0.00;;;20.30;59.40;;;;;;4208758;28;20483;-67
2022/05/16 04:26:30;;;;;;;0.00;0.00;;;20.30;59.10;;;;;;4208240;28;20092;-67
2022/05/16 04:28:52;;;;;;;0.00;0.00;;;20.30;59.40;;;;;;4208839;28;20113;-67
2022/05/16 04:31:14;;;;;;;0.00;0.00;;;20.30;59.10;;;;;;4208627;28;20105;-67
2022/05/16 04:33:36;;;;;;;0.00;0.00;;;20.40;59.20;;;;;;4208715;28;20044;-67
2022/05/16 04:35:58;;;;;;;0.00;0.00;;;20.40;59.20;;;;;;4207014;28;20055;-67
2022/05/16 04:38:20;;;;;;;0.00;0.00;;;20.40;59.00;;;;;;4208467;28;20047;-66
2022/05/16 04:43:20;;;;;;;0.17;0.17;;;20.40;59.10;;;;;;4208371;28;20121;-67
2022/05/16 04:45:42;;;;;;;0.00;0.00;;;20.40;59.00;;;;;;4208709;28;20400;-67
2022/05/16 04:48:06;;;;;;;0.00;0.00;;;20.40;59.10;;;;;;4208641;28;20074;-66
2022/05/16 04:50:32;;;;;;;0.30;0.30;;;20.40;58.70;;;;;;4208468;28;20048;-66
2022/05/16 04:52:55;;;;;;;0.25;0.25;;;20.40;58.40;;;;;;4208093;28;20749;-66
2022/05/16 04:55:17;;;;;;;0.00;0.00;;;20.40;58.70;;;;;;4208267;28;20105;-67
2022/05/16 04:57:40;;;;;;;0.00;0.00;;;20.40;58.80;;;;;;4208907;28;20456;-67
2022/05/16 05:00:12;;;;;;;0.00;0.00;;;20.30;58.80;;;;;;4206700;28;20555;-67
2022/05/16 05:02:34;;;;;;;0.00;0.00;;;20.40;58.90;;;;;;4210409;28;20091;-67
2022/05/16 05:04:56;;;;;;;0.00;0.00;;;20.40;58.40;;;;;;4211923;28;20468;-67
2022/05/16 05:07:18;;;;;;;0.00;0.00;;;20.40;58.60;;;;;;4211877;28;20044;-67
2022/05/16 05:14:56;;;;;;;0.00;0.00;;;20.30;58.90;;;;;;4211422;28;20052;-67
2022/05/16 05:17:21;;;;;;;0.00;0.00;;;20.30;58.80;;;;;;4211200;28;20488;-67
2022/05/16 05:19:43;;;;;;;1.02;0.57;;;20.30;58.40;;;;;;4210827;28;20059;-67
2022/05/16 05:22:06;;;;;;;0.00;0.00;;;20.30;58.50;;;;;;4210648;28;20410;-67
2022/05/16 05:24:28;;;;;;;0.38;0.38;;;20.30;58.80;;;;;;4211258;28;20058;-66
2022/05/16 05:26:50;;;;;;;0.57;0.57;;;20.30;59.00;;;;;;4211255;28;20066;-66
2022/05/16 05:29:12;;;;;;;0.00;0.00;;;20.30;59.10;;;;;;4211526;28;20067;-65
2022/05/16 05:31:35;;;;;;;0.00;0.00;;;20.30;59.30;;;;;;4211140;28;20151;-66
2022/05/16 05:33:59;;;;;;;0.13;0.13;;;20.30;59.50;;;;;;4211224;28;20467;-65
2022/05/16 05:36:21;;;;;;;0.00;0.00;;;20.30;59.80;;;;;;4210919;28;20130;-66
2022/05/16 05:38:43;;;;;;;0.05;0.05;;;20.30;59.80;;;;;;4209789;28;20082;-67
2022/05/16 05:41:06;;;;;;;0.00;0.00;;;20.40;59.80;;;;;;4210810;28;20044;-67
2022/05/16 05:43:28;;;;;;;0.00;0.00;;;20.40;59.80;;;;;;4210956;28;20527;-67
2022/05/16 05:45:50;;;;;;;0.00;0.00;;;20.40;60.00;;;;;;4210860;28;20048;-65
2022/05/16 05:48:17;;;;;;;1.65;0.73;;;20.40;60.10;;;;;;4210910;28;20051;-64
2022/05/16 05:50:41;;;;;;;0.00;0.00;;;20.50;59.80;;;;;;4211062;28;20047;-65
2022/05/16 05:53:03;;;;;;;0.00;0.00;;;20.50;59.30;;;;;;4210496;28;20151;-65
2022/05/16 05:55:24;;;;;;;0.00;0.00;;;20.50;59.00;;;;;;4210926;28;20719;-65
2022/05/16 05:57:47;;;;;;;0.38;0.38;;;20.50;58.80;;;;;;4210632;28;20059;-65
2022/05/16 06:00:11;;;;;;;0.00;0.00;;;20.50;58.50;;;;;;4211233;28;20143;-65
2022/05/16 06:02:34;;;;;;;7.10;2.47;;;20.50;58.70;;;;;;4211058;28;20063;-65
2022/05/16 06:04:56;;;;;;;0.00;0.00;;;20.50;58.70;;;;;;4211056;28;20048;-65
2022/05/16 06:07:19;;;;;;;0.00;0.00;;;20.50;58.40;;;;;;4210581;28;20044;-65
2022/05/16 06:09:41;;;;;;;0.00;0.00;;;20.50;58.30;;;;;;4210548;28;20105;-65
2022/05/16 06:12:05;;;;;;;0.00;0.00;;;20.50;58.20;;;;;;4210812;28;20054;-65
2022/05/16 06:14:27;;;;;;;0.00;0.00;;;20.50;58.00;;;;;;4210072;28;20048;-65
2022/05/16 06:16:49;;;;;;;0.00;0.00;;;20.40;58.30;;;;;;4210630;28;20044;-66
2022/05/16 06:19:11;;;;;;;0.00;0.00;;;20.40;59.30;;;;;;4210503;28;20060;-66
2022/05/16 06:21:34;;;;;;;0.00;0.00;;;20.40;58.50;;;;;;4210749;28;20415;-65
2022/05/16 06:23:57;;;;;;;0.00;0.00;;;20.40;58.40;;;;;;4210039;28;20062;-65
2022/05/16 06:26:19;;;;;;;0.00;0.00;;;20.40;58.10;;;;;;4210890;28;20044;-65
2022/05/16 06:28:42;;;;;;;0.00;0.00;;;20.50;58.40;;;;;;4210768;28;20051;-65
2022/05/16 06:31:04;;;;;;;0.00;0.00;;;20.50;58.40;;;;;;4191423;28;20044;-66
2022/05/16 06:33:28;;;;;;;0.55;0.52;;;20.50;58.30;;;;;;4200525;28;20045;-66
2022/05/16 06:35:51;;;;;;;0.00;0.00;;;20.50;58.40;;;;;;4191115;28;20082;-66
2022/05/16 06:38:15;;;;;;;0.25;0.25;;;20.50;58.40;;;;;;4191047;28;20059;-66
2022/05/16 06:40:41;;;;;;;0.00;0.00;;;20.40;58.20;;;;;;4195932;28;20162;-67
2022/05/16 06:43:03;;;;;;;0.85;0.85;;;20.40;58.30;;;;;;4201854;28;20434;-67
2022/05/16 06:45:25;;;;;;;0.00;0.00;;;20.40;58.20;;;;;;4191716;28;20404;-67
2022/05/16 06:47:48;;;;;;;0.00;0.00;;;20.50;58.40;;;;;;4191254;28;20491;-67
2022/05/16 06:50:10;;;;;;;0.00;0.00;;;20.50;58.50;;;;;;4205336;28;20451;-67
2022/05/16 06:52:33;;;;;;;0.20;0.20;;;20.50;58.50;;;;;;4194483;28;20126;-66
2022/05/16 06:54:55;;;;;;;0.00;0.00;;;20.50;58.30;;;;;;4207337;28;20052;-67
2022/05/16 06:57:18;;;;;;;0.00;0.00;;;20.60;58.90;;;;;;4201066;28;20125;-66
2022/05/16 06:59:41;;;;;;;0.20;0.20;;;20.70;57.80;;;;;;4205176;28;20277;-65
2022/05/16 07:02:03;;;;;;;0.00;0.00;;;20.70;57.60;;;;;;4193703;28;20067;-66
2022/05/16 07:04:26;;;;;;;0.15;0.15;;;20.80;57.60;;;;;;4210254;28;20120;-66
2022/05/16 07:06:48;;;;;;;0.00;0.00;;;20.90;57.70;;;;;;4191106;28;20475;-65
2022/05/16 07:09:10;;;;;;;0.00;0.00;;;20.90;57.50;;;;;;4205901;28;20106;-65
2022/05/16 07:11:32;;;;;;;0.00;0.00;;;21.00;57.40;;;;;;4207211;28;20406;-66
2022/05/16 07:13:56;;;;;;;0.00;0.00;;;21.10;57.10;;;;;;4207206;28;20044;-66
2022/05/16 07:16:18;;;;;;;0.08;0.08;;;21.10;57.30;;;;;;4206667;28;20181;-66
2022/05/16 07:18:40;;;;;;;0.00;0.00;;;21.20;57.30;;;;;;4199408;28;20109;-65
2022/05/16 07:21:04;;;;;;;0.00;0.00;;;21.20;57.30;;;;;;4195157;28;20051;-66
2022/05/16 07:23:27;;;;;;;0.00;0.00;;;21.30;57.30;;;;;;4189661;28;20056;-66
2022/05/16 07:28:29;;;;;;;0.00;0.00;;;21.40;57.00;;;;;;4190423;28;20135;-65
2022/05/16 07:30:53;;;;;;;0.00;0.00;;;21.40;57.00;;;;;;4190318;28;20068;-66
2022/05/16 07:33:14;;;;;;;0.00;0.00;;;21.50;56.90;;;;;;4205613;28;20056;-66
2022/05/16 07:35:38;;;;;;;0.00;0.00;;;21.50;56.80;;;;;;4202223;28;20064;-65
2022/05/16 07:38:01;;;;;;;0.30;0.30;;;21.50;56.70;;;;;;4196572;28;20174;-65
2022/05/16 07:40:26;;;;;;;0.00;0.00;;;21.60;56.70;;;;;;4190083;28;20102;-65
2022/05/16 07:42:48;;;;;;;0.38;0.38;;;21.60;56.80;;;;;;4190577;28;20044;-66
2022/05/16 07:45:11;;;;;;;0.00;0.00;;;21.60;57.10;;;;;;4191226;28;20055;-66
2022/05/16 07:47:35;;;;;;;1.65;0.57;;;21.60;57.50;;;;;;4191764;28;20059;-65
2022/05/16 07:49:57;;;;;;;0.55;0.47;;;21.70;57.40;;;;;;4205692;28;20434;-65
2022/05/16 07:52:19;;;;;;;0.00;0.00;;;21.70;57.30;;;;;;4201321;28;20052;-65
2022/05/16 07:54:41;;;;;;;0.32;0.32;;;21.80;57.10;;;;;;4198685;28;20548;-65
2022/05/16 07:57:04;;;;;;;0.00;0.00;;;21.80;56.70;;;;;;4204502;28;20043;-65
2022/05/16 07:59:26;;;;;;;0.00;0.00;;;21.80;56.60;;;;;;4219055;28;20047;-65
2022/05/16 08:01:48;;;;;;;0.00;0.00;;;21.80;56.20;;;;;;4195995;28;20050;-65
2022/05/16 08:04:12;;;;;;;0.15;0.15;;;21.80;56.30;;;;;;4193393;28;20056;-66
2022/05/16 08:06:35;;;;;;;0.70;0.65;;;21.80;56.40;;;;;;4190131;28;20048;-65
2022/05/16 08:11:36;;;;;;;0.35;0.35;;;21.90;56.40;;;;;;4188555;28;20048;-65
2022/05/16 08:13:58;;;;;;;0.00;0.00;;;21.90;56.40;;;;;;4190143;28;20145;-65
2022/05/16 08:16:20;;;;;;;0.00;0.00;;;21.90;56.30;;;;;;4194212;28;20050;-65
2022/05/16 08:18:43;;;;;;;0.10;0.10;;;21.90;56.20;;;;;;4194183;28;20145;-65
2022/05/16 08:21:07;;;;;;;0.32;0.32;;;22.00;56.20;;;;;;4192064;28;20048;-65
2022/05/16 08:23:30;;;;;;;0.45;0.40;;;22.00;56.00;;;;;;4192038;28;20049;-65
2022/05/16 08:25:54;;;;;;;0.17;0.17;;;22.00;56.00;;;;;;4190072;28;20052;-65
2022/05/16 08:28:17;;;;;;;0.00;0.00;;;22.10;56.10;;;;;;4194476;28;20056;-65
2022/05/16 08:30:39;;;;;;;0.00;0.00;;;22.10;56.10;;;;;;4200423;28;20494;-67
2022/05/16 08:33:02;;;;;;;0.25;0.25;;;22.00;56.00;;;;;;4190763;28;20518;-67
2022/05/16 08:35:24;;;;;;;0.10;0.10;;;22.10;56.10;;;;;;4189822;28;20144;-66
2022/05/16 08:40:43;;;;;;;0.00;0.00;;;22.10;56.00;;;;;;4193235;28;20076;-66
2022/05/16 08:43:11;;;;;;;0.45;0.45;;;22.20;56.00;;;;;;4209072;28;20623;-66
2022/05/16 08:45:36;;;;;;;0.00;0.00;;;22.10;55.90;;;;;;4196650;28;20135;-66
2022/05/16 08:48:08;;;;;;;0.00;0.00;;;22.20;55.90;;;;;;4209401;28;20052;-66
2022/05/16 08:50:38;;;;;;;0.08;0.08;;;22.20;55.90;;;;;;4209327;28;20459;-66
2022/05/16 08:53:06;;;;;;;0.00;0.00;;;22.20;55.80;;;;;;4198318;28;20052;-66
2022/05/16 08:55:34;;;;;;;0.00;0.00;;;22.20;55.70;;;;;;4200471;28;20060;-66
2022/05/16 08:58:01;;;;;;;0.00;0.00;;;22.20;55.80;;;;;;4200607;28;20106;-65
2022/05/16 09:00:28;;;;;;;0.00;0.00;;;22.30;55.80;;;;;;4193753;28;20036;-66
2022/05/16 09:02:53;;;;;;;0.52;0.43;;;22.30;55.80;;;;;;4193378;28;20106;-70
2022/05/16 09:05:19;;;;;;;0.00;0.00;;;22.30;55.90;;;;;;4202438;28;20549;-65
2022/05/16 09:07:46;;;;;;;1.10;0.47;;;22.40;56.00;;;;;;4207559;28;20054;-65
2022/05/16 09:10:13;;;;;;;0.00;0.00;;;22.40;55.80;;;;;;4199514;28;20623;-65
2022/05/16 09:12:42;;;;;;;0.20;0.20;;;22.40;55.80;;;;;;4194526;28;20145;-65
2022/05/16 09:15:20;;;;;;;0.00;0.00;;;22.40;55.70;;;;;;4203126;28;20121;-65
2022/05/16 09:17:55;;;;;;;0.00;0.00;;;22.50;55.70;;;;;;4195107;28;20655;-65
2022/05/16 09:20:28;;;;;;;1.23;0.85;;;22.50;55.50;;;;;;4191314;28;20083;-65
2022/05/16 09:22:58;;;;;;;0.15;0.15;;;22.50;55.40;;;;;;4190416;28;20396;-65
2022/05/16 09:25:24;;;;;;;0.23;0.23;;;22.50;55.30;;;;;;4201646;28;20047;-66
2022/05/16 09:30:31;;;;;;;0.00;0.00;;;22.60;55.30;;;;;;4204199;28;20075;-66
2022/05/16 09:32:59;;;;;;;0.80;0.80;;;22.70;55.20;;;;;;4197254;27;20033;-66
2022/05/16 09:35:30;;;;;;;0.08;0.08;;;22.70;55.20;;;;;;4193551;28;20048;-64
2022/05/16 09:37:55;;;;;;;0.00;0.00;;;22.70;55.10;;;;;;4199233;28;20075;-65
2022/05/16 09:40:21;;;;;;;0.30;0.30;;;22.70;55.10;;;;;;4207536;28;20075;-65
2022/05/16 09:42:44;;;;;;;0.00;0.00;;;22.80;55.10;;;;;;4196661;28;20063;-65
2022/05/16 09:45:19;;;;;;;0.00;0.00;;;22.70;54.90;;;;;;4204272;28;20131;-66
2022/05/16 09:47:43;;;;;;;1.80;0.45;;;22.80;54.90;;;;;;4191722;28;20063;-64
2022/05/16 09:50:10;;;;;;;0.00;0.00;;;22.80;54.80;;;;;;4201998;28;20050;-64
2022/05/16 09:52:38;;;;;;;0.00;0.00;;;22.80;54.70;;;;;;4194174;28;20044;-65
2022/05/16 09:55:03;;;;;;;0.00;0.00;;;22.90;54.70;;;;;;4198395;28;20133;-64
2022/05/16 09:57:26;;;;;;;0.00;0.00;;;22.90;54.60;;;;;;4196035;28;20052;-64
2022/05/16 09:59:51;;;;;;;20.35;0.98;;;22.90;54.60;;;;;;4191779;28;20080;-64
2022/05/16 10:02:19;;;;;;;0.00;0.00;;;22.90;54.50;;;;;;4206406;28;20060;-64
2022/05/16 10:04:51;;;;;;;0.00;0.00;;;22.90;54.40;;;;;;4190098;28;20147;-66
2022/05/16 10:07:14;;;;;;;0.00;0.00;;;23.00;54.40;;;;;;4204567;28;20452;-66
2022/05/16 10:09:39;;;;;;;0.22;0.22;;;23.00;54.30;;;;;;4192226;28;20072;-66
2022/05/16 10:12:01;;;;;;;0.08;0.08;;;23.10;54.20;;;;;;4197271;28;20052;-65
2022/05/16 10:14:24;;;;;;;0.00;0.00;;;23.10;54.10;;;;;;4192350;28;20136;-65
2022/05/16 10:16:49;;;;;;;0.00;0.00;;;23.10;54.00;;;;;;4195794;28;20044;-65
2022/05/16 10:19:16;;;;;;;0.00;0.00;;;23.10;53.90;;;;;;4191972;28;20510;-65
2022/05/16 10:21:41;;;;;;;0.00;0.00;;;23.20;54.00;;;;;;4191882;28;20082;-65
2022/05/16 10:24:07;;;;;;;0.00;0.00;;;23.30;53.90;;;;;;4192432;28;20044;-65
2022/05/16 10:26:34;;;;;;;0.00;0.00;;;23.30;53.90;;;;;;4195612;28;21457;-64
2022/05/16 10:28:59;;;;;;;0.15;0.15;;;23.30;53.70;;;;;;4193764;28;20587;-64
2022/05/16 10:34:09;;;;;;;0.00;0.00;;;23.40;53.60;;;;;;4207524;28;20538;-65
2022/05/16 10:36:33;;;;;;;0.00;0.00;;;23.40;53.50;;;;;;4196723;28;20556;-65
2022/05/16 10:39:02;;;;;;;0.32;0.30;;;23.40;53.40;;;;;;4207922;28;20110;-65
2022/05/16 10:41:28;;;;;;;0.00;0.00;;;23.50;53.40;;;;;;4202816;28;20053;-65
2022/05/16 10:44:08;;;;;;;0.47;0.47;;;23.60;53.30;;;;;;4207489;28;20046;-65
2022/05/16 10:46:34;;;;;;;1.48;1.30;;;23.60;53.10;;;;;;4191011;28;20552;-65
2022/05/16 10:49:01;;;;;;;0.05;0.05;;;23.60;53.00;;;;;;4196681;28;20051;-65
2022/05/16 10:51:32;;;;;;;0.00;0.00;;;23.70;53.00;;;;;;4192125;28;20060;-64
2022/05/16 10:54:04;;;;;;;0.00;0.00;;;23.70;52.80;;;;;;4191284;28;20055;-64
2022/05/16 10:56:44;;;;;;;0.00;0.00;;;23.70;52.80;;;;;;4207176;28;20899;-65
2022/05/16 10:59:17;;;;;;;0.00;0.00;;;23.70;52.70;;;;;;4191135;28;20138;-65
2022/05/16 11:01:45;;;;;;;1.08;0.80;;;23.80;52.50;;;;;;4191727;28;20491;-64
2022/05/16 11:04:47;;;;;;;0.10;0.10;;;23.80;52.60;;;;;;4193309;28;20053;-65
2022/05/16 11:07:22;;;;;;;0.00;0.00;;;23.80;52.50;;;;;;4195239;28;20932;-65
2022/05/16 11:09:52;;;;;;;0.30;0.30;;;23.80;52.40;;;;;;4190713;28;20071;-65
2022/05/16 11:12:18;;;;;;;0.47;0.47;;;23.80;52.30;;;;;;4191274;28;20060;-65
2022/05/16 11:14:47;;;;;;;0.00;0.00;;;23.90;52.40;;;;;;4200038;28;20052;-65
2022/05/16 11:17:21;;;;;;;0.00;0.00;;;23.90;52.30;;;;;;4202851;28;20056;-68
2022/05/16 11:19:51;;;;;;;0.00;0.00;;;23.90;52.30;;;;;;4192616;28;20102;-67
2022/05/16 11:22:26;;;;;;;0.00;0.00;;;23.90;52.30;;;;;;4192166;28;20057;-67
2022/05/16 11:24:59;;;;;;;12.40;1.17;;;23.90;52.10;;;;;;4189389;28;20051;-68
2022/05/16 11:27:30;;;;;;;0.00;0.00;;;23.90;52.00;;;;;;4205718;28;20048;-68
2022/05/16 11:29:56;;;;;;;;;;;24.00;52.00;;;;;;4200789;28;20059;-68
2022/05/16 11:32:30;;;;;;;0.00;0.00;;;24.00;52.00;;;;;;4199694;28;19921;-67
2022/05/16 11:35:00;;;;;;;0.13;0.13;;;24.00;51.90;;;;;;4200821;28;20138;-67
2022/05/16 11:37:34;;;;;;;0.65;0.65;;;24.00;51.80;;;;;;4206895;28;20048;-68
2022/05/16 11:40:04;;;;;;;0.00;0.00;;;24.10;51.70;;;;;;4195072;28;20052;-68
2022/05/16 11:42:40;;;;;;;1.53;1.00;;;24.10;51.60;;;;;;4191633;28;20155;-68
2022/05/16 11:45:21;;;;;;;0.45;0.20;;;24.10;51.40;;;;;;4201123;28;20056;-67
2022/05/16 11:47:49;;;;;;;0.00;0.00;;;24.10;51.20;;;;;;4194876;28;20434;-67
2022/05/16 11:50:39;;;;;;;0.00;0.00;;;24.10;51.20;;;;;;4200149;28;20048;-67
2022/05/16 11:53:20;;;;;;;0.00;0.00;;;24.10;51.30;;;;;;4195213;28;20044;-68
2022/05/16 12:01:29;;;;;;;0.43;0.43;;;24.10;51.40;;;;;;4191156;28;20075;-67
2022/05/16 12:04:13;;;;;;;0.00;0.00;;;24.00;51.40;;;;;;4196533;28;20113;-67
2022/05/16 12:06:38;;;;;;;1.15;1.08;;;24.00;51.50;;;;;;4190256;28;20056;-68
2022/05/16 12:09:16;;;;;;;0.20;0.20;;;24.00;51.50;;;;;;4195146;28;20650;-67
2022/05/16 12:11:53;;;;;;;0.63;0.63;;;24.00;51.70;;;;;;4192934;28;20142;-68
2022/05/16 12:14:29;;;;;;;0.10;0.10;;;24.00;51.70;;;;;;4205880;28;20063;-67
2022/05/16 12:16:56;;;;;;;0.00;0.00;;;23.90;51.80;;;;;;4194474;28;20056;-66
2022/05/16 12:19:33;;;;;;;0.00;0.00;;;23.90;51.90;;;;;;4198155;28;20110;-66
2022/05/16 12:21:59;;;;;;;0.00;0.00;;;23.90;52.00;;;;;;4189739;28;20066;-67
2022/05/16 12:24:41;;;;;;;0.35;0.35;;;23.90;52.00;;;;;;4202035;28;20059;-68
2022/05/16 12:27:09;;;;;;;5.20;0.73;;;23.90;52.20;;;;;;4196308;28;20233;-67
2022/05/16 12:29:48;;;;;;;0.20;0.20;;;23.90;52.20;;;;;;4189748;28;20474;-67
2022/05/16 12:32:21;;;;;;;0.00;0.00;;;23.90;52.30;;;;;;4193050;28;20466;-67
2022/05/16 12:34:46;;;;;;;0.00;0.00;;;23.90;52.40;;;;;;4196470;28;20486;-67
2022/05/16 12:37:11;;;;;;;1.98;1.25;;;23.90;52.50;;;;;;4195495;28;20110;-67
2022/05/16 12:39:39;;;;;;;0.00;0.00;;;23.90;52.50;;;;;;4207767;28;20544;-65
2022/05/16 12:42:10;;;;;;;0.00;0.00;;;23.90;52.60;;;;;;4200647;28;20047;-66
2022/05/16 12:44:44;;;;;;;0.00;0.00;;;23.90;52.70;;;;;;4191053;28;20044;-66
2022/05/16 12:47:43;;;;;;;0.00;0.00;;;23.90;52.60;;;;;;4189654;28;20052;-66
2022/05/16 12:50:23;;;;;;;0.75;0.75;;;23.90;52.60;;;;;;4199718;28;20056;-66
2022/05/16 12:53:33;;;;;;;0.00;0.00;;;23.90;52.60;;;;;;4199716;28;20110;-65
2022/05/16 12:56:07;;;;;;;0.20;0.20;;;23.90;52.60;;;;;;4197535;28;20134;-65
2022/05/16 12:58:42;;;;;;;0.20;0.20;;;23.90;52.60;;;;;;4196901;28;20044;-66
2022/05/16 13:01:13;;;;;;;0.00;0.00;;;23.90;52.60;;;;;;4199789;28;20433;-66
2022/05/16 13:03:41;;;;;;;;;;;23.90;52.60;;;;;;4189410;28;20076;-67
2022/05/16 13:06:08;;;;;;;0.10;0.10;;;23.90;52.60;;;;;;4188409;28;19991;-67
2022/05/16 13:08:45;;;;;;;0.40;0.38;;;23.90;52.60;;;;;;4190752;28;20063;-67
2022/05/16 13:11:19;;;;;;;0.00;0.00;;;23.90;52.60;;;;;;4188962;28;20117;-66
2022/05/16 13:13:57;;;;;;;0.25;0.25;;;23.90;52.60;;;;;;4189210;28;20133;-66